Glenoma, WA (98336)

6:51 PM PDT on July 24, 2016 (GMT -0700)
Anderson Road | | Change Station

Elev 810 ft 46.51 °N, 122.16 °W | Updated 6 seconds ago

Clear
Clear
87.8 °F
Feels Like 88 °F
N
3.7
Wind Variable Wind from SSW

Today
High -- | Low -- °F
--% Chance of Precip.
Yesterday
High -- | Low -- °F
Precip. -- in
Pressure 30.02 in
Visibility -9999.0 miles
Clouds Clear
Heat Index 88 °F
Dew Point 60 °F
Humidity 40%
Rainfall 0.00 in
Snow Depth Not available.
5:40 AM 8:48 PM
Waning Gibbous, 71% visible
METAR KPLU 250135Z AUTO VRB04KT CLR 27/12 A3002 RMK AO2
Pressure 30.02 in
Visibility -9999.0 miles
Clouds Clear
Heat Index 88 °F
Dew Point 60 °F
Humidity 40%
Rainfall 0.00 in
Snow Depth Not available.
5:40 AM 8:48 PM
Waning Gibbous, 71% visible
METAR KPLU 250135Z AUTO VRB04KT CLR 27/12 A3002 RMK AO2

10-Day Weather Forecast

Almanac

Astronomy

Jul. 24, 2016 Rise Set
Actual Time
Civil Twilight
Nautical Twilight
Astronomical Twilight
Moon
Length of Visible Light
Length of Day
Tomorrow will be .
, % of the Moon is Illuminated

Today's Extremes

State Highs State Lows

Community

WunderPhotos

Upload Photos

1,927,233 photos uploaded!

WunderBlog® & News

Nearby

Air Quality

  Air Quality AQ Index Pollutant
Not available.

Snow Depth

Station Depth Elevation

Earthquake Activity

City Distance Mag. Time & Date
Minimum magnitude displayed is 2.5.

Coastal Water Temperatures

Place Temperature

Stations

Nearby Weather Stations

Station Location Temp. Windchill Dew Point Humidity Wind Precip. Elev Updated Type
                   

Watches & Warnings

There are currently no watches in effect.